Flight Track Log - Related Links

Times and Time Zones

All times are in EST time to prevent confusion due to time zone crossing. See the AWE305 flight status page for this flight to view local times or setup timezone preferences in your user account.

Time Position Orientation Groundspeed Altitude Reporting Facility
EST Latitude Longitude Course Direction KTS MPH feet Rate Location/Type
Wed 02:31:41 AM 33.4333 -111.9667 90° East 178 205 2,800  Level Phoenix TRACON
Wed 02:32:23 AM 33.4333 -111.9167 90° East 196 226 3,700 1,353 Climbing Phoenix TRACON
Wed 02:33:23 AM 33.4333 -111.8500 74° East 257 296 5,100 1,789 Climbing Phoenix TRACON
Wed 02:35:14 AM 33.4742 -111.6825 71° East 291 335 8,800 1,895 Climbing Albuquerque Center
Wed 02:36:14 AM 33.5028 -111.5842 71° East 296 341 10,500 1,350 Climbing Albuquerque Center
Wed 02:37:14 AM 33.5336 -111.4736 72° East 317 365 11,500 1,200 Climbing Albuquerque Center
Wed 02:38:14 AM 33.5669 -111.3508 72° East 354 407 12,900 1,550 Climbing Albuquerque Center
Wed 02:39:14 AM 33.6025 -111.2203 71° East 387 445 14,600 1,650 Climbing Albuquerque Center
Wed 02:40:14 AM 33.6403 -111.0850 72° East 408 470 16,200 1,600 Climbing Albuquerque Center
Wed 02:41:14 AM 33.6778 -110.9444 72° East 423 487 17,800 1,400 Climbing Albuquerque Center
Wed 02:42:14 AM 33.7175 -110.8011 73° East 435 501 19,000 1,200 Climbing Albuquerque Center
Wed 02:43:14 AM 33.7550 -110.6553 71° East 446 513 20,200 1,000 Climbing Albuquerque Center
Wed 02:44:14 AM 33.7897 -110.5319 74° East 458 527 21,000 1,000 Climbing Albuquerque Center
Wed 02:45:14 AM 33.8317 -110.3608 72° East 469 540 22,200 1,150 Climbing Albuquerque Center
Wed 02:46:14 AM 33.8731 -110.2050 72° East 481 554 23,300 1,050 Climbing Albuquerque Center
Wed 02:47:14 AM 33.9164 -110.0436 72° East 488 562 24,300 850 Climbing Albuquerque Center
Wed 02:48:14 AM 33.9597 -109.8775 73° East 499 574 25,000 750 Climbing Albuquerque Center
Wed 02:49:14 AM 34.0028 -109.7108 72° East 510 587 25,800 900 Climbing Albuquerque Center
Wed 02:50:14 AM 34.0475 -109.5442 73° East 521 600 26,800 1,000 Climbing Albuquerque Center
Wed 02:51:14 AM 34.0969 -109.3525 73° East 521 600 27,800 900 Climbing Albuquerque Center
Wed 02:52:14 AM 34.1392 -109.1828 73° East 526 605 28,600 700 Climbing Albuquerque Center
Wed 02:53:14 AM 34.1833 -109.0106 74° East 526 605 29,200 750 Climbing Albuquerque Center
Wed 02:54:14 AM 34.2253 -108.8356 72° East 531 611 30,100 800 Climbing Albuquerque Center
Wed 02:55:14 AM 34.2711 -108.6656 73° East 531 611 30,800 450 Climbing Albuquerque Center
Wed 02:56:14 AM 34.3167 -108.4878 74° East 531 611 31,000 100 Climbing Albuquerque Center
Wed 02:57:14 AM 34.3536 -108.3297 75° East 531 611 31,000  Level Albuquerque Center
Wed 02:58:14 AM 34.3947 -108.1464 73° East 542 624 31,000  Level Albuquerque Center
Wed 02:59:14 AM 34.4394 -107.9681 73° East 547 629 31,000  Level Albuquerque Center
Wed 03:00:14 AM 34.4842 -107.7844 73° East 553 636 31,000  Level Albuquerque Center
Wed 03:01:14 AM 34.5283 -107.6031 74° East 553 636 31,000  Level Albuquerque Center
Wed 03:02:14 AM 34.5725 -107.4167 73° East 558 642 31,000  Level Albuquerque Center
Wed 03:03:14 AM 34.6225 -107.2147 74° East 565 650 31,000  Level Albuquerque Center
Wed 03:04:14 AM 34.6639 -107.0328 75° East 560 644 31,000  Level Albuquerque Center
Wed 03:05:14 AM 34.7050 -106.8458 73° East 565 650 31,000  Level Albuquerque Center
Wed 03:06:14 AM 34.7500 -106.6636 75° East 571 657 31,000  Level Albuquerque Center
Wed 03:07:14 AM 34.7925 -106.4761 74° East 576 663 31,000  Level Albuquerque Center
Wed 03:08:14 AM 34.8369 -106.2883 75° East 571 657 31,000  Level Albuquerque Center
Wed 03:09:14 AM 34.8728 -106.1233 74° East 571 657 31,000  Level Albuquerque Center
Wed 03:10:14 AM 34.9167 -105.9350 75° East 571 657 31,000  Level Albuquerque Center
Wed 03:11:14 AM 34.9581 -105.7417 75° East 576 663 31,000  Level Albuquerque Center
Wed 03:12:14 AM 34.9992 -105.5533 76° East 576 663 31,000  Level Albuquerque Center
Wed 03:13:14 AM 35.0400 -105.3597 74° East 576 663 31,000  Level Albuquerque Center
Wed 03:14:14 AM 35.0847 -105.1733 79° East 569 655 31,000  Level Albuquerque Center
Wed 03:15:14 AM 35.1144 -104.9794 86° East 576 663 31,000  Level Albuquerque Center
Wed 03:16:14 AM 35.1267 -104.7683 87° East 571 657 31,000  Level Albuquerque Center
Wed 03:17:14 AM 35.1347 -104.5750 86° East 571 657 31,000  Level Albuquerque Center
Wed 03:18:14 AM 35.1447 -104.3842 87° East 566 651 31,000  Level Albuquerque Center
Wed 03:19:14 AM 35.1525 -104.1933 85° East 566 651 31,000  Level Albuquerque Center
Wed 03:20:14 AM 35.1661 -104.0022 88° East 566 651 31,000  Level Albuquerque Center
Wed 03:21:14 AM 35.1714 -103.8292 87° East 561 646 31,000  Level Albuquerque Center
Wed 03:22:14 AM 35.1803 -103.6356 87° East 561 646 31,000  Level Albuquerque Center
Wed 03:23:14 AM 35.1881 -103.4269 86° East 561 646 31,000  Level Albuquerque Center
Wed 03:24:14 AM 35.1983 -103.2308 89° East 566 651 31,000  Level Albuquerque Center
Wed 03:25:14 AM 35.2019 -103.0397 88° East 566 651 31,000  Level Albuquerque Center
Wed 03:26:14 AM 35.2075 -102.8489 88° East 566 651 31,000  Level Albuquerque Center
Wed 03:27:14 AM 35.2125 -102.6578 88° East 566 651 31,000  Level Albuquerque Center
Wed 03:28:14 AM 35.2172 -102.4619 88° East 571 657 31,000  Level Albuquerque Center
Wed 03:29:14 AM 35.2219 -102.2708 88° East 571 657 31,000  Level Albuquerque Center
Wed 03:30:14 AM 35.2281 -102.0797 89° East 571 657 31,000  Level Albuquerque Center
Wed 03:31:14 AM 35.2300 -101.8889 88° East 571 657 31,000  Level Albuquerque Center
Wed 03:32:14 AM 35.2358 -101.6978 87° East 566 651 31,000  Level Albuquerque Center
Wed 03:33:14 AM 35.2436 -101.5167 86° East 581 669 31,000  Level Albuquerque Center
Wed 03:34:14 AM 35.2531 -101.3278 87° East 571 657 31,000  Level Albuquerque Center
Wed 03:35:14 AM 35.2600 -101.1339 86° East 565 650 31,000  Level Albuquerque Center
Wed 03:36:14 AM 35.2706 -100.9422 88° East 565 650 31,000  Level Albuquerque Center
Wed 03:37:14 AM 35.2769 -100.7511 88° East 565 650 31,000  Level Albuquerque Center
Wed 03:39:35 AM 35.2922 -100.2722 87° East 582 670 31,000  Level Fort Worth Center
Wed 03:40:35 AM 35.3006 -100.0819 88° East 571 657 31,000  Level Fort Worth Center
Wed 03:41:35 AM 35.3067 -99.8861 87° East 571 657 31,000  Level Fort Worth Center
Wed 03:42:35 AM 35.3144 -99.6931 88° East 571 657 31,000  Level Fort Worth Center
Wed 03:43:35 AM 35.3200 -99.4997 88° East 571 657 31,000  Level Fort Worth Center
Wed 03:44:35 AM 35.3250 -99.3067 88° East 571 657 31,000  Level Fort Worth Center
Wed 03:45:35 AM 35.3300 -99.1108 88° East 571 657 31,000  Level Fort Worth Center
Wed 03:46:35 AM 35.3347 -98.9150 88° East 571 657 31,000  Level Fort Worth Center
Wed 03:47:35 AM 35.3389 -98.7217 88° East 571 657 31,000  Level Fort Worth Center
Wed 03:48:35 AM 35.3450 -98.5258 89° East 571 657 31,000  Level Fort Worth Center
Wed 03:49:35 AM 35.3464 -98.3553 89° East 558 642 31,000  Level Fort Worth Center
Wed 03:50:35 AM 35.3497 -98.1467 89° East 558 642 31,000  Level Fort Worth Center
Wed 03:51:35 AM 35.3528 -97.9506 89° East 563 648 31,000  Level Fort Worth Center
Wed 03:52:35 AM 35.3556 -97.7572 89° East 563 648 31,000  Level Fort Worth Center
Wed 03:53:35 AM 35.3581 -97.5636 88° East 568 654 31,000  Level Fort Worth Center
Wed 03:54:35 AM 35.3644 -97.3678 89° East 573 659 31,000  Level Fort Worth Center
Wed 03:55:35 AM 35.3664 -97.2125 89° East 567 652 31,000  Level Fort Worth Center
Wed 03:56:35 AM 35.3700 -96.9808 89° East 567 652 31,000  Level Fort Worth Center
Wed 03:57:35 AM 35.3733 -96.7872 89° East 567 652 31,000  Level Fort Worth Center
Wed 03:58:35 AM 35.3764 -96.5936 90° East 567 652 31,000  Level Fort Worth Center
Wed 03:59:35 AM 35.3772 -96.3978 88° East 572 658 31,000  Level Fort Worth Center
Wed 04:00:35 AM 35.3817 -96.2017 90° East 572 658 31,000  Level Fort Worth Center
Wed 04:01:35 AM 35.3817 -96.0056 88° East 572 658 31,000  Level Fort Worth Center
Wed 04:02:35 AM 35.3858 -95.8325 89° East 572 658 31,000  Level Fort Worth Center
Wed 04:04:39 AM 35.3883 -95.4250 90° East 569 655 31,000  Level Memphis Center
Wed 04:05:39 AM 35.3878 -95.2289 89° East 569 655 31,000  Level Memphis Center
Wed 04:06:39 AM 35.3892 -95.0278 90° East 580 667 31,000  Level Memphis Center
Wed 04:07:39 AM 35.3903 -94.8319 90° East 580 667 31,000  Level Memphis Center
Wed 04:08:39 AM 35.3908 -94.6358 91° East 575 662 31,000  Level Memphis Center
Wed 04:09:39 AM 35.3889 -94.4422 85° East 569 655 31,000  Level Memphis Center
Wed 04:10:39 AM 35.4017 -94.2417 89° East 575 662 31,000  Level Memphis Center
Wed 04:11:39 AM 35.4056 -94.0456 93° East 575 662 31,000  Level Memphis Center
Wed 04:12:39 AM 35.3986 -93.8567 93° East 570 656 31,000  Level Memphis Center
Wed 04:13:39 AM 35.3892 -93.6653 94° East 565 650 31,000  Level Memphis Center
Wed 04:14:39 AM 35.3794 -93.4767 94° East 560 644 31,000  Level Memphis Center
Wed 04:15:39 AM 35.3692 -93.2953 94° East 551 634 31,000  Level Memphis Center
Wed 04:16:39 AM 35.3569 -93.1039 95° East 546 628 31,000  Level Memphis Center
Wed 04:17:39 AM 35.3442 -92.9128 95° East 551 634 31,000  Level Memphis Center
Wed 04:18:39 AM 35.3297 -92.7011 93° East 564 649 31,000 -50 Level Memphis Center
Wed 04:19:39 AM 35.3206 -92.5125 84° East 564 649 30,900 350 Descending Memphis Center
Wed 04:20:39 AM 35.3361 -92.3219 81° East 558 642 31,700 650 Climbing Memphis Center
Wed 04:21:39 AM 35.3600 -92.1292 85° East 558 642 32,200 600 Climbing Memphis Center
Wed 04:22:39 AM 35.3728 -91.9358 82° East 563 648 32,900 400 Climbing Memphis Center
Wed 04:23:39 AM 35.3939 -91.7400 84° East 569 655 33,000 50 Climbing Memphis Center
Wed 04:24:39 AM 35.4106 -91.5392 82° East 577 664 33,000  Level Memphis Center
Wed 04:25:39 AM 35.4333 -91.3431 84° East 584 672 33,000  Level Memphis Center
Wed 04:26:39 AM 35.4514 -91.1447 82° East 584 672 33,000  Level Memphis Center
Wed 04:27:39 AM 35.4733 -90.9433 84° East 584 672 33,000  Level Memphis Center
Wed 04:28:39 AM 35.4908 -90.7447 85° East 584 672 33,000  Level Memphis Center
Wed 04:29:39 AM 35.5058 -90.5483 83° East 584 672 33,000  Level Memphis Center
Wed 04:30:39 AM 35.5247 -90.3519 84° East 584 672 33,000  Level Memphis Center
Wed 04:31:39 AM 35.5411 -90.1733 84° East 579 666 33,000  Level Memphis Center
Wed 04:32:39 AM 35.5575 -89.9742 84° East 579 666 33,000  Level Memphis Center
Wed 04:33:39 AM 35.5733 -89.7725 84° East 584 672 33,000  Level Memphis Center
Wed 04:34:39 AM 35.5889 -89.5758 84° East 589 678 33,000  Level Memphis Center
Wed 04:35:39 AM 35.6061 -89.3536 85° East 589 678 33,000  Level Memphis Center
Wed 04:36:39 AM 35.6211 -89.1542 84° East 594 684 33,000  Level Memphis Center
Wed 04:37:39 AM 35.6378 -88.9547 86° East 589 678 33,000  Level Memphis Center
Wed 04:38:39 AM 35.6478 -88.7603 84° East 581 669 33,000  Level Memphis Center
Wed 04:39:39 AM 35.6639 -88.5658 85° East 576 663 33,000  Level Memphis Center
Wed 04:40:39 AM 35.6778 -88.3739 85° East 576 663 33,000  Level Memphis Center
Wed 04:41:39 AM 35.6911 -88.1767 87° East 576 663 33,000  Level Memphis Center
Wed 04:42:39 AM 35.6983 -88.0000 85° East 578 665 33,000  Level Memphis Center
Wed 04:43:39 AM 35.7111 -87.8106 85° East 566 651 33,000  Level Memphis Center
Wed 04:44:39 AM 35.7258 -87.6131 85° East 566 651 33,000  Level Memphis Center
Wed 04:45:39 AM 35.7381 -87.4236 86° East 566 651 33,000  Level Memphis Center
Wed 04:46:39 AM 35.7494 -87.2108 86° East 566 651 33,000  Level Memphis Center
Wed 04:47:39 AM 35.7611 -87.0183 85° East 566 651 33,000  Level Memphis Center
Wed 04:48:51 AM 35.7770 -86.7846 86° East 554 638 33,000  Level FlightAware ADS-B
Wed 04:49:22 AM 35.7826 -86.6853 86° East 553 636 33,000  Level FlightAware ADS-B
Wed 04:50:26 AM 35.7935 -86.4861 86° East 545 627 33,000  Level FlightAware ADS-B
Wed 04:50:57 AM 35.7986 -86.3913 86° East 544 626 33,000  Level FlightAware ADS-B
Wed 04:51:28 AM 35.8036 -86.2968 86° East 544 626 33,000  Level FlightAware ADS-B
Wed 04:51:58 AM 35.8085 -86.2014 86° East 545 627 33,000  Level FlightAware ADS-B
Wed 04:52:30 AM 35.8134 -86.1046 86° East 548 631 33,000  Level FlightAware ADS-B
Wed 04:53:00 AM 35.8181 -86.0093 86° East 549 632 33,000  Level FlightAware ADS-B
Wed 04:53:31 AM 35.8228 -85.9145 87° East 550 633 33,000  Level FlightAware ADS-B
Wed 04:54:01 AM 35.8273 -85.8196 87° East 551 634 33,000  Level FlightAware ADS-B
Wed 04:54:31 AM 35.8318 -85.7259 86° East 538 619 33,000  Level FlightAware ADS-B
Wed 04:55:01 AM 35.8363 -85.6345 87° East 535 616 33,000  Level FlightAware ADS-B
Wed 04:55:41 AM 35.8418 -85.5135 87° East 532 612 33,000  Level FlightAware ADS-B
Wed 04:56:11 AM 35.8459 -85.4233 87° East 530 610 33,000  Level FlightAware ADS-B
Wed 04:56:41 AM 35.8499 -85.3320 87° East 534 615 33,000 97 Level FlightAware ADS-B
Wed 04:57:13 AM 35.8541 -85.2374 87° East 535 616 33,100  Climbing FlightAware ADS-B
Wed 04:57:43 AM 35.8580 -85.1454 87° East 537 618 33,000  Descending FlightAware ADS-B
Wed 04:58:13 AM 35.8618 -85.0540 87° East 536 617 33,100 90 Climbing FlightAware ADS-B
Wed 04:58:50 AM 35.8665 -84.9413 87° East 536 617 33,100  Level FlightAware ADS-B
Wed 04:59:20 AM 35.8703 -84.8494 87° East 534 615 33,100  Level FlightAware ADS-B
Wed 04:59:51 AM 35.8740 -84.7566 87° East 533 613 33,100 -88 Level FlightAware ADS-B
Wed 05:00:28 AM 35.8783 -84.6452 87° East 531 611 33,000 -90 Descending FlightAware ADS-B
Wed 05:00:58 AM 35.8819 -84.5542 87° East 529 609 33,000  Level FlightAware ADS-B
Wed 05:01:29 AM 35.8853 -84.4608 87° East 527 606 33,000  Level FlightAware ADS-B
Wed 05:01:59 AM 35.8886 -84.3708 87° East 524 603 33,000  Level FlightAware ADS-B
Wed 05:02:33 AM 35.8922 -84.2707 87° East 524 603 33,000  Level FlightAware ADS-B
Wed 05:03:12 AM 35.8963 -84.1549 88° East 522 601 33,000  Level FlightAware ADS-B
Wed 05:03:42 AM 35.8993 -84.0655 88° East 521 600 33,000  Level FlightAware ADS-B
Wed 05:04:13 AM 35.9024 -83.9723 88° East 521 600 33,000  Level FlightAware ADS-B
Wed 05:04:34 AM 35.9044 -83.9106 91° East 522 601 33,000  Level FlightAware ADS-B
Wed 05:05:04 AM 35.9036 -83.8209 91° East 523 602 33,000  Level FlightAware ADS-B
Wed 05:05:32 AM 35.9020 -83.7361 95° East 524 603 33,000  Level FlightAware ADS-B
Wed 05:05:58 AM 35.8968 -83.6605 99° East 526 605 33,000  Level FlightAware ADS-B
Wed 05:06:29 AM 35.8850 -83.5668 99° East 527 606 33,000  Level FlightAware ADS-B
Wed 05:07:03 AM 35.8721 -83.4681 99° East 526 605 33,000  Level FlightAware ADS-B
Wed 05:07:34 AM 35.8600 -83.3760 99° East 528 608 33,000  Level FlightAware ADS-B
Wed 05:08:05 AM 35.8476 -83.2837 99° East 527 606 33,000 -393 Level FlightAware ADS-B
Wed 05:08:35 AM 35.8357 -83.1943 99° East 528 608 32,600 -1,619 Descending FlightAware ADS-B
Wed 05:09:08 AM 35.8226 -83.0978 99° East 529 609 31,300 -2,400 Descending FlightAware ADS-B
Wed 05:09:45 AM 35.8082 -82.9906 99° East 527 606 29,800 -2,471 Descending FlightAware ADS-B
Wed 05:10:16 AM 35.7955 -82.8973 100° East 526 605 28,500 -2,806 Descending FlightAware ADS-B
Wed 05:10:47 AM 35.7830 -82.8066 100° East 531 611 26,900 -3,306 Descending FlightAware ADS-B
Wed 05:11:05 AM 35.7751 -82.7497 100° East 537 618 25,800 -2,816 Descending FlightAware ADS-B
Wed 05:11:36 AM 35.7622 -82.6569 100° East 527 606 24,600 -2,190 Descending FlightAware ADS-B
Wed 05:12:08 AM 35.7496 -82.5657 100° East 516 594 23,500 -2,095 Descending FlightAware ADS-B
Wed 05:12:39 AM 35.7370 -82.4757 100° East 504 580 22,400 -2,066 Descending FlightAware ADS-B
Wed 05:13:09 AM 35.7250 -82.3905 100° East 492 566 21,400 -2,066 Descending FlightAware ADS-B
Wed 05:13:40 AM 35.7133 -82.3083 100° East 483 556 20,300 -2,164 Descending FlightAware ADS-B
Wed 05:14:10 AM 35.7017 -82.2262 100° East 474 545 19,200 -2,200 Descending FlightAware ADS-B
Wed 05:14:40 AM 35.6904 -82.1476 99° East 465 535 18,100 -1,324 Descending FlightAware ADS-B
Wed 05:15:18 AM 35.6833 -82.0919 100° East 469 540 17,700 -1,538 Descending FAA TRACON SMA TRACON (SMA)
Wed 05:15:58 AM 35.6667 -81.9750 100° East 442 509 16,100 -2,250 Descending FAA TRACON SMA TRACON (SMA)
Wed 05:16:38 AM 35.6522 -81.8781 102° East 420 483 14,700 -1,800 Descending FAA TRACON SMA TRACON (SMA)
Wed 05:17:18 AM 35.6364 -81.7858 101° East 403 464 13,700 -1,650 Descending FAA TRACON SMA TRACON (SMA)
Wed 05:17:58 AM 35.6233 -81.7053 102° East 394 453 12,500 -1,823 Descending FAA TRACON SMA TRACON (SMA)
Wed 05:18:37 AM 35.6078 -81.6172 101° East 383 441 11,300 -1,050 Descending FAA TRACON SMA TRACON (SMA)
Wed 05:19:18 AM 35.5942 -81.5325 102° East 365 420 11,100 -370 Descending FAA TRACON SMA TRACON (SMA)
Wed 05:19:58 AM 35.5817 -81.4617 102° East 350 403 10,800 -940 Descending FAA TRACON SMA TRACON (SMA)
Wed 05:20:41 AM 35.5675 -81.3781 102° East 328 377 9,800 -1,275 Descending FAA TRACON SMA TRACON (SMA)
Wed 05:21:18 AM 35.5564 -81.3131 102° East 319 367 9,100 -1,275 Descending FAA TRACON SMA TRACON (SMA)
Wed 05:22:01 AM 35.5436 -81.2419 112° Southeast 310 357 8,100 -1,725 Descending FAA TRACON SMA TRACON (SMA)
Wed 05:22:38 AM 35.5239 -81.1833 113° Southeast 303 349 6,800 -1,870 Descending FAA TRACON SMA TRACON (SMA)
Wed 05:23:18 AM 35.5036 -81.1258 113° Southeast 297 342 5,700 -1,807 Descending FAA TRACON SMA TRACON (SMA)
Wed 05:24:01 AM 35.4792 -81.0567 114° Southeast 284 327 4,300 -1,200 Descending FAA TRACON SMA TRACON (SMA)
Wed 05:24:38 AM 35.4581 -80.9975 129° Southeast 274 315 4,100 -390 Descending FAA TRACON SMA TRACON (SMA)
Wed 05:25:18 AM 35.4328 -80.9594 169° South 231 266 3,800 -525 Descending FAA TRACON SMA TRACON (SMA)
Wed 05:25:58 AM 35.3989 -80.9514 175° South 188 216 3,400 -525 Descending FAA TRACON SMA TRACON (SMA)
Wed 05:26:38 AM 35.3675 -80.9483 176° South 168 193 3,100 -150 Descending FAA TRACON SMA TRACON (SMA)
Wed 05:27:18 AM 35.3394 -80.9458 176° South 165 190 3,200 -375 Climbing FAA TRACON SMA TRACON (SMA)
Wed 05:27:58 AM 35.3108 -80.9433 176° South 153 176 2,600 -825 Descending FAA TRACON SMA TRACON (SMA)
Wed 05:28:38 AM 35.2867 -80.9414 176° South 146 168 2,100 -750 Descending FAA TRACON SMA TRACON (SMA)
Wed 05:29:18 AM 35.2592 -80.9392 176° South 143 165 1,600 -750 Descending FAA TRACON SMA TRACON (SMA)
Wed 05:29:58 AM 35.2319 -80.9367 176° South 141 162 1,100 -750 Descending FAA TRACON SMA TRACON (SMA)

Login

Don't have an account? Register now (free) for customized features, flight alerts, and more!